Terminal Aerodrome Forecast
Issued by NWS Twin Cities, MN

Home | Current Version | Previous Version | Text Only | Print | Product List | Glossary On
Versions: 1 2 3 4 5 6 7 8 9 10 11 12 13 14 15 16 17 18 19 20 21 22 23 24 25 26 27 28
000
FTUS43 KMPX 281447 AAA
TAFMSP
TAF AMD
KMSP 281447Z 2815/2918 15008KT P6SM SKC
     FM281800 16012G19KT P6SM FEW200
     FM290500 17014G23KT P6SM BKN150
     FM291000 18016G26KT 5SM -RA OVC040=

USA.gov is the U.S. government's official web portal to all federal, state and local government web resources and services.